sensor_id;sensor_type;location;lat;lon;timestamp;P1;durP1;ratioP1;P2;durP2;ratioP2
11614;SDS011;5863;52.832;4.758;2023-04-06T00:01:07;17.27;;;11.47;;
11614;SDS011;5863;52.832;4.758;2023-04-06T00:03:39;14.60;;;10.63;;
11614;SDS011;5863;52.832;4.758;2023-04-06T00:06:06;16.17;;;10.87;;
11614;SDS011;5863;52.832;4.758;2023-04-06T00:08:33;14.53;;;10.93;;
11614;SDS011;5863;52.832;4.758;2023-04-06T00:10:59;16.47;;;11.03;;
11614;SDS011;5863;52.832;4.758;2023-04-06T00:13:27;17.83;;;11.93;;
11614;SDS011;5863;52.832;4.758;2023-04-06T00:15:54;15.17;;;10.63;;
11614;SDS011;5863;52.832;4.758;2023-04-06T00:18:21;14.30;;;10.73;;
11614;SDS011;5863;52.832;4.758;2023-04-06T00:20:48;13.90;;;10.00;;
11614;SDS011;5863;52.832;4.758;2023-04-06T00:23:15;17.60;;;10.83;;
11614;SDS011;5863;52.832;4.758;2023-04-06T00:28:12;17.00;;;11.17;;
11614;SDS011;5863;52.832;4.758;2023-04-06T00:30:40;15.83;;;10.87;;
11614;SDS011;5863;52.832;4.758;2023-04-06T00:33:07;16.77;;;10.57;;
11614;SDS011;5863;52.832;4.758;2023-04-06T00:35:33;15.07;;;10.57;;
11614;SDS011;5863;52.832;4.758;2023-04-06T00:38:00;16.87;;;11.43;;
11614;SDS011;5863;52.832;4.758;2023-04-06T00:40:27;15.57;;;10.77;;
11614;SDS011;5863;52.832;4.758;2023-04-06T00:42:54;14.40;;;10.47;;
11614;SDS011;5863;52.832;4.758;2023-04-06T00:45:21;16.60;;;11.33;;
11614;SDS011;5863;52.832;4.758;2023-04-06T00:47:49;15.80;;;10.97;;
11614;SDS011;5863;52.832;4.758;2023-04-06T00:50:16;17.20;;;11.37;;
11614;SDS011;5863;52.832;4.758;2023-04-06T00:52:51;19.30;;;11.70;;
11614;SDS011;5863;52.832;4.758;2023-04-06T00:55:17;14.10;;;10.47;;
11614;SDS011;5863;52.832;4.758;2023-04-06T00:57:44;14.77;;;10.63;;
11614;SDS011;5863;52.832;4.758;2023-04-06T01:00:12;17.20;;;10.70;;
11614;SDS011;5863;52.832;4.758;2023-04-06T01:02:41;16.00;;;11.17;;
11614;SDS011;5863;52.832;4.758;2023-04-06T01:05:09;16.17;;;11.63;;
11614;SDS011;5863;52.832;4.758;2023-04-06T01:07:35;16.73;;;10.97;;
11614;SDS011;5863;52.832;4.758;2023-04-06T01:10:09;13.67;;;10.37;;
11614;SDS011;5863;52.832;4.758;2023-04-06T01:12:36;16.83;;;11.17;;
11614;SDS011;5863;52.832;4.758;2023-04-06T01:15:04;14.00;;;10.63;;
11614;SDS011;5863;52.832;4.758;2023-04-06T01:17:32;16.57;;;11.27;;
11614;SDS011;5863;52.832;4.758;2023-04-06T01:19:58;16.80;;;11.43;;
11614;SDS011;5863;52.832;4.758;2023-04-06T01:22:26;16.77;;;11.50;;
11614;SDS011;5863;52.832;4.758;2023-04-06T01:24:53;15.97;;;11.63;;
11614;SDS011;5863;52.832;4.758;2023-04-06T01:27:20;15.70;;;11.33;;
11614;SDS011;5863;52.832;4.758;2023-04-06T01:29:47;16.47;;;11.87;;
11614;SDS011;5863;52.832;4.758;2023-04-06T01:32:13;17.77;;;11.53;;
11614;SDS011;5863;52.832;4.758;2023-04-06T01:34:40;16.90;;;11.67;;
11614;SDS011;5863;52.832;4.758;2023-04-06T01:37:06;16.30;;;11.60;;
11614;SDS011;5863;52.832;4.758;2023-04-06T01:39:34;16.03;;;11.27;;
11614;SDS011;5863;52.832;4.758;2023-04-06T01:42:01;21.97;;;11.83;;
11614;SDS011;5863;52.832;4.758;2023-04-06T01:44:28;17.00;;;12.30;;
11614;SDS011;5863;52.832;4.758;2023-04-06T01:46:55;16.40;;;11.60;;
11614;SDS011;5863;52.832;4.758;2023-04-06T01:49:22;15.33;;;10.97;;
11614;SDS011;5863;52.832;4.758;2023-04-06T01:51:50;17.43;;;11.53;;
11614;SDS011;5863;52.832;4.758;2023-04-06T01:54:17;16.17;;;11.43;;
11614;SDS011;5863;52.832;4.758;2023-04-06T01:56:46;19.53;;;11.53;;
11614;SDS011;5863;52.832;4.758;2023-04-06T01:59:15;16.93;;;11.90;;
11614;SDS011;5863;52.832;4.758;2023-04-06T02:01:42;17.03;;;11.23;;
11614;SDS011;5863;52.832;4.758;2023-04-06T02:04:08;16.63;;;10.53;;
11614;SDS011;5863;52.832;4.758;2023-04-06T02:06:35;16.40;;;11.20;;
11614;SDS011;5863;52.832;4.758;2023-04-06T02:09:02;18.37;;;11.83;;
11614;SDS011;5863;52.832;4.758;2023-04-06T02:11:28;16.37;;;11.50;;
11614;SDS011;5863;52.832;4.758;2023-04-06T02:13:56;15.60;;;11.10;;
11614;SDS011;5863;52.832;4.758;2023-04-06T02:16:25;18.10;;;11.87;;
11614;SDS011;5863;52.832;4.758;2023-04-06T02:18:52;14.13;;;11.00;;
11614;SDS011;5863;52.832;4.758;2023-04-06T02:21:18;16.50;;;11.40;;
11614;SDS011;5863;52.832;4.758;2023-04-06T02:23:45;15.60;;;11.00;;
11614;SDS011;5863;52.832;4.758;2023-04-06T02:26:12;16.23;;;11.40;;
11614;SDS011;5863;52.832;4.758;2023-04-06T02:28:39;17.17;;;11.00;;
11614;SDS011;5863;52.832;4.758;2023-04-06T02:31:07;15.40;;;10.70;;
11614;SDS011;5863;52.832;4.758;2023-04-06T02:33:34;15.37;;;11.70;;
11614;SDS011;5863;52.832;4.758;2023-04-06T02:36:00;16.03;;;11.07;;
11614;SDS011;5863;52.832;4.758;2023-04-06T02:38:27;16.50;;;10.27;;
11614;SDS011;5863;52.832;4.758;2023-04-06T02:40:53;15.10;;;11.07;;
11614;SDS011;5863;52.832;4.758;2023-04-06T02:43:20;14.73;;;10.40;;
11614;SDS011;5863;52.832;4.758;2023-04-06T02:45:47;14.20;;;10.53;;
11614;SDS011;5863;52.832;4.758;2023-04-06T02:48:15;14.13;;;10.30;;
11614;SDS011;5863;52.832;4.758;2023-04-06T02:50:42;14.17;;;10.40;;
11614;SDS011;5863;52.832;4.758;2023-04-06T02:53:09;17.03;;;10.70;;
11614;SDS011;5863;52.832;4.758;2023-04-06T02:55:35;14.90;;;9.73;;
11614;SDS011;5863;52.832;4.758;2023-04-06T02:58:02;14.97;;;10.07;;
11614;SDS011;5863;52.832;4.758;2023-04-06T03:00:29;14.27;;;9.47;;
11614;SDS011;5863;52.832;4.758;2023-04-06T03:02:57;15.03;;;9.83;;
11614;SDS011;5863;52.832;4.758;2023-04-06T03:05:25;15.37;;;9.97;;
11614;SDS011;5863;52.832;4.758;2023-04-06T03:07:52;15.47;;;10.33;;
11614;SDS011;5863;52.832;4.758;2023-04-06T03:13:26;14.63;;;9.60;;
11614;SDS011;5863;52.832;4.758;2023-04-06T03:15:53;14.33;;;10.20;;
11614;SDS011;5863;52.832;4.758;2023-04-06T03:18:21;14.07;;;9.47;;
11614;SDS011;5863;52.832;4.758;2023-04-06T03:20:49;13.43;;;9.93;;
11614;SDS011;5863;52.832;4.758;2023-04-06T03:23:18;16.43;;;10.40;;
11614;SDS011;5863;52.832;4.758;2023-04-06T03:25:45;15.17;;;9.70;;
11614;SDS011;5863;52.832;4.758;2023-04-06T03:28:12;13.40;;;9.63;;
11614;SDS011;5863;52.832;4.758;2023-04-06T03:30:39;15.60;;;10.30;;
11614;SDS011;5863;52.832;4.758;2023-04-06T03:33:06;13.77;;;9.93;;
11614;SDS011;5863;52.832;4.758;2023-04-06T03:35:32;13.17;;;9.93;;
11614;SDS011;5863;52.832;4.758;2023-04-06T03:38:00;14.20;;;10.40;;
11614;SDS011;5863;52.832;4.758;2023-04-06T03:40:27;12.60;;;9.60;;
11614;SDS011;5863;52.832;4.758;2023-04-06T03:42:54;16.47;;;10.37;;
11614;SDS011;5863;52.832;4.758;2023-04-06T03:45:20;15.07;;;9.63;;
11614;SDS011;5863;52.832;4.758;2023-04-06T03:47:47;11.53;;;8.90;;
11614;SDS011;5863;52.832;4.758;2023-04-06T03:50:13;11.87;;;9.60;;
11614;SDS011;5863;52.832;4.758;2023-04-06T03:52:40;13.13;;;9.33;;
11614;SDS011;5863;52.832;4.758;2023-04-06T03:55:09;12.13;;;8.70;;
11614;SDS011;5863;52.832;4.758;2023-04-06T03:57:35;13.83;;;9.17;;
11614;SDS011;5863;52.832;4.758;2023-04-06T04:00:02;14.73;;;9.13;;
11614;SDS011;5863;52.832;4.758;2023-04-06T04:02:30;14.63;;;9.57;;
11614;SDS011;5863;52.832;4.758;2023-04-06T04:04:56;14.40;;;9.30;;
11614;SDS011;5863;52.832;4.758;2023-04-06T04:07:23;13.13;;;9.03;;
11614;SDS011;5863;52.832;4.758;2023-04-06T04:09:50;14.57;;;9.97;;
11614;SDS011;5863;52.832;4.758;2023-04-06T04:12:18;12.53;;;9.10;;
11614;SDS011;5863;52.832;4.758;2023-04-06T04:14:44;12.77;;;8.80;;
11614;SDS011;5863;52.832;4.758;2023-04-06T04:17:11;10.80;;;8.50;;
11614;SDS011;5863;52.832;4.758;2023-04-06T04:19:38;12.93;;;8.83;;
11614;SDS011;5863;52.832;4.758;2023-04-06T04:22:05;10.40;;;8.27;;
11614;SDS011;5863;52.832;4.758;2023-04-06T04:24:32;10.93;;;8.57;;
11614;SDS011;5863;52.832;4.758;2023-04-06T04:26:59;12.07;;;8.63;;
11614;SDS011;5863;52.832;4.758;2023-04-06T04:29:28;11.07;;;9.00;;
11614;SDS011;5863;52.832;4.758;2023-04-06T04:31:54;11.37;;;8.90;;
11614;SDS011;5863;52.832;4.758;2023-04-06T04:34:21;12.80;;;8.83;;
11614;SDS011;5863;52.832;4.758;2023-04-06T04:36:50;13.80;;;8.83;;
11614;SDS011;5863;52.832;4.758;2023-04-06T04:39:16;13.53;;;9.37;;
11614;SDS011;5863;52.832;4.758;2023-04-06T04:41:43;9.53;;;7.83;;
11614;SDS011;5863;52.832;4.758;2023-04-06T04:44:10;10.93;;;8.50;;
11614;SDS011;5863;52.832;4.758;2023-04-06T04:46:38;12.37;;;9.13;;
11614;SDS011;5863;52.832;4.758;2023-04-06T04:49:06;11.77;;;8.73;;
11614;SDS011;5863;52.832;4.758;2023-04-06T04:51:33;13.50;;;9.17;;
11614;SDS011;5863;52.832;4.758;2023-04-06T04:53:59;13.70;;;9.10;;
11614;SDS011;5863;52.832;4.758;2023-04-06T04:56:26;11.40;;;8.90;;
11614;SDS011;5863;52.832;4.758;2023-04-06T04:58:54;11.77;;;9.23;;
11614;SDS011;5863;52.832;4.758;2023-04-06T05:01:21;13.07;;;9.50;;
11614;SDS011;5863;52.832;4.758;2023-04-06T05:03:51;11.67;;;8.90;;
11614;SDS011;5863;52.832;4.758;2023-04-06T05:06:17;10.70;;;8.33;;
11614;SDS011;5863;52.832;4.758;2023-04-06T05:08:45;12.70;;;9.20;;
11614;SDS011;5863;52.832;4.758;2023-04-06T05:11:11;15.00;;;8.60;;
11614;SDS011;5863;52.832;4.758;2023-04-06T05:13:38;11.70;;;8.67;;
11614;SDS011;5863;52.832;4.758;2023-04-06T05:16:05;12.73;;;8.80;;
11614;SDS011;5863;52.832;4.758;2023-04-06T05:18:32;14.20;;;9.10;;
11614;SDS011;5863;52.832;4.758;2023-04-06T05:21:00;12.13;;;9.47;;
11614;SDS011;5863;52.832;4.758;2023-04-06T05:23:27;11.63;;;8.50;;
11614;SDS011;5863;52.832;4.758;2023-04-06T05:25:53;12.23;;;8.87;;
11614;SDS011;5863;52.832;4.758;2023-04-06T05:28:20;13.50;;;10.30;;
11614;SDS011;5863;52.832;4.758;2023-04-06T05:30:47;13.37;;;9.67;;
11614;SDS011;5863;52.832;4.758;2023-04-06T05:33:21;12.27;;;9.73;;
11614;SDS011;5863;52.832;4.758;2023-04-06T05:35:48;12.83;;;9.90;;
11614;SDS011;5863;52.832;4.758;2023-04-06T05:38:16;13.17;;;10.13;;
11614;SDS011;5863;52.832;4.758;2023-04-06T05:40:43;13.40;;;10.17;;
11614;SDS011;5863;52.832;4.758;2023-04-06T05:43:10;15.47;;;10.20;;
11614;SDS011;5863;52.832;4.758;2023-04-06T05:45:37;14.33;;;9.83;;
11614;SDS011;5863;52.832;4.758;2023-04-06T05:48:03;12.23;;;9.37;;
11614;SDS011;5863;52.832;4.758;2023-04-06T05:50:36;14.83;;;10.20;;
11614;SDS011;5863;52.832;4.758;2023-04-06T05:53:03;15.13;;;10.37;;
11614;SDS011;5863;52.832;4.758;2023-04-06T05:55:31;14.17;;;10.07;;
11614;SDS011;5863;52.832;4.758;2023-04-06T05:57:57;12.30;;;9.70;;
11614;SDS011;5863;52.832;4.758;2023-04-06T06:00:24;15.47;;;11.00;;
11614;SDS011;5863;52.832;4.758;2023-04-06T06:02:51;14.13;;;10.50;;
11614;SDS011;5863;52.832;4.758;2023-04-06T06:05:17;12.93;;;9.57;;
11614;SDS011;5863;52.832;4.758;2023-04-06T06:07:44;16.53;;;11.03;;
11614;SDS011;5863;52.832;4.758;2023-04-06T06:10:13;16.87;;;11.40;;
11614;SDS011;5863;52.832;4.758;2023-04-06T06:12:41;17.33;;;11.00;;
11614;SDS011;5863;52.832;4.758;2023-04-06T06:15:08;15.80;;;11.30;;
11614;SDS011;5863;52.832;4.758;2023-04-06T06:17:35;17.60;;;11.83;;
11614;SDS011;5863;52.832;4.758;2023-04-06T06:20:03;13.47;;;10.90;;
11614;SDS011;5863;52.832;4.758;2023-04-06T06:22:36;15.07;;;11.33;;
11614;SDS011;5863;52.832;4.758;2023-04-06T06:25:03;15.37;;;11.33;;
11614;SDS011;5863;52.832;4.758;2023-04-06T06:27:30;15.57;;;11.00;;
11614;SDS011;5863;52.832;4.758;2023-04-06T06:29:58;16.67;;;11.83;;
11614;SDS011;5863;52.832;4.758;2023-04-06T06:32:25;18.03;;;11.27;;
11614;SDS011;5863;52.832;4.758;2023-04-06T06:34:52;17.87;;;10.97;;
11614;SDS011;5863;52.832;4.758;2023-04-06T06:37:18;15.50;;;10.97;;
11614;SDS011;5863;52.832;4.758;2023-04-06T06:39:45;16.37;;;11.63;;
11614;SDS011;5863;52.832;4.758;2023-04-06T06:42:12;17.30;;;12.50;;
11614;SDS011;5863;52.832;4.758;2023-04-06T06:44:38;14.83;;;11.10;;
11614;SDS011;5863;52.832;4.758;2023-04-06T06:47:06;14.87;;;11.37;;
11614;SDS011;5863;52.832;4.758;2023-04-06T06:49:33;16.97;;;11.80;;
11614;SDS011;5863;52.832;4.758;2023-04-06T06:52:01;17.07;;;11.73;;
11614;SDS011;5863;52.832;4.758;2023-04-06T06:54:27;17.53;;;12.57;;
11614;SDS011;5863;52.832;4.758;2023-04-06T06:56:54;15.27;;;11.47;;
11614;SDS011;5863;52.832;4.758;2023-04-06T06:59:21;17.17;;;12.43;;
11614;SDS011;5863;52.832;4.758;2023-04-06T07:01:47;19.30;;;12.30;;
11614;SDS011;5863;52.832;4.758;2023-04-06T07:04:17;15.77;;;12.07;;
11614;SDS011;5863;52.832;4.758;2023-04-06T07:06:44;18.80;;;12.77;;
11614;SDS011;5863;52.832;4.758;2023-04-06T07:09:11;17.47;;;12.87;;
11614;SDS011;5863;52.832;4.758;2023-04-06T07:11:38;20.50;;;13.83;;
11614;SDS011;5863;52.832;4.758;2023-04-06T07:14:05;16.00;;;12.17;;
11614;SDS011;5863;52.832;4.758;2023-04-06T07:16:31;19.50;;;13.57;;
11614;SDS011;5863;52.832;4.758;2023-04-06T07:19:17;19.20;;;13.30;;
11614;SDS011;5863;52.832;4.758;2023-04-06T07:21:44;21.27;;;14.03;;
11614;SDS011;5863;52.832;4.758;2023-04-06T07:24:11;17.83;;;13.03;;
11614;SDS011;5863;52.832;4.758;2023-04-06T07:26:38;23.43;;;13.03;;
11614;SDS011;5863;52.832;4.758;2023-04-06T07:29:04;25.37;;;14.20;;
11614;SDS011;5863;52.832;4.758;2023-04-06T07:35:08;22.73;;;14.70;;
11614;SDS011;5863;52.832;4.758;2023-04-06T07:37:35;24.37;;;15.20;;
11614;SDS011;5863;52.832;4.758;2023-04-06T07:40:02;23.97;;;15.30;;
11614;SDS011;5863;52.832;4.758;2023-04-06T07:42:29;22.53;;;15.70;;
11614;SDS011;5863;52.832;4.758;2023-04-06T07:44:55;23.10;;;15.13;;
11614;SDS011;5863;52.832;4.758;2023-04-06T07:47:22;23.33;;;15.67;;
11614;SDS011;5863;52.832;4.758;2023-04-06T07:49:49;23.40;;;16.10;;
11614;SDS011;5863;52.832;4.758;2023-04-06T07:52:17;22.40;;;16.40;;
11614;SDS011;5863;52.832;4.758;2023-04-06T07:54:57;23.30;;;15.97;;
11614;SDS011;5863;52.832;4.758;2023-04-06T07:57:24;21.77;;;15.80;;
11614;SDS011;5863;52.832;4.758;2023-04-06T07:59:51;25.03;;;17.00;;
11614;SDS011;5863;52.832;4.758;2023-04-06T08:02:18;25.30;;;17.17;;
11614;SDS011;5863;52.832;4.758;2023-04-06T08:04:45;25.13;;;17.80;;
11614;SDS011;5863;52.832;4.758;2023-04-06T08:07:11;25.50;;;17.10;;
11614;SDS011;5863;52.832;4.758;2023-04-06T08:09:39;30.20;;;18.87;;
11614;SDS011;5863;52.832;4.758;2023-04-06T08:12:06;27.87;;;18.53;;
11614;SDS011;5863;52.832;4.758;2023-04-06T08:14:39;31.77;;;18.57;;
11614;SDS011;5863;52.832;4.758;2023-04-06T08:17:06;26.53;;;18.07;;
11614;SDS011;5863;52.832;4.758;2023-04-06T08:19:32;26.73;;;18.90;;
11614;SDS011;5863;52.832;4.758;2023-04-06T08:21:59;27.53;;;18.83;;
11614;SDS011;5863;52.832;4.758;2023-04-06T08:24:26;27.67;;;18.93;;
11614;SDS011;5863;52.832;4.758;2023-04-06T08:26:54;26.30;;;19.07;;
11614;SDS011;5863;52.832;4.758;2023-04-06T08:29:20;27.60;;;19.63;;
11614;SDS011;5863;52.832;4.758;2023-04-06T08:31:47;28.87;;;20.73;;
11614;SDS011;5863;52.832;4.758;2023-04-06T08:34:19;28.80;;;20.80;;
11614;SDS011;5863;52.832;4.758;2023-04-06T08:36:46;31.13;;;21.33;;
11614;SDS011;5863;52.832;4.758;2023-04-06T08:39:12;32.90;;;21.20;;
11614;SDS011;5863;52.832;4.758;2023-04-06T08:41:41;31.70;;;20.93;;
11614;SDS011;5863;52.832;4.758;2023-04-06T08:44:09;33.03;;;22.77;;
11614;SDS011;5863;52.832;4.758;2023-04-06T08:46:36;33.27;;;21.67;;
11614;SDS011;5863;52.832;4.758;2023-04-06T08:49:03;32.00;;;23.07;;
11614;SDS011;5863;52.832;4.758;2023-04-06T08:51:49;30.70;;;21.23;;
11614;SDS011;5863;52.832;4.758;2023-04-06T08:54:16;30.43;;;21.30;;
11614;SDS011;5863;52.832;4.758;2023-04-06T08:56:43;33.73;;;22.87;;
11614;SDS011;5863;52.832;4.758;2023-04-06T08:59:11;34.67;;;22.63;;
11614;SDS011;5863;52.832;4.758;2023-04-06T09:01:39;33.20;;;22.67;;
11614;SDS011;5863;52.832;4.758;2023-04-06T09:04:07;32.93;;;22.90;;
11614;SDS011;5863;52.832;4.758;2023-04-06T09:06:35;32.97;;;22.20;;
11614;SDS011;5863;52.832;4.758;2023-04-06T09:09:02;35.27;;;23.63;;
11614;SDS011;5863;52.832;4.758;2023-04-06T09:11:29;36.57;;;23.67;;
11614;SDS011;5863;52.832;4.758;2023-04-06T09:14:12;31.83;;;22.75;;
11614;SDS011;5863;52.832;4.758;2023-04-06T09:16:40;34.57;;;23.67;;
11614;SDS011;5863;52.832;4.758;2023-04-06T09:19:08;34.50;;;22.67;;
11614;SDS011;5863;52.832;4.758;2023-04-06T09:21:35;34.60;;;24.07;;
11614;SDS011;5863;52.832;4.758;2023-04-06T09:24:02;33.95;;;23.40;;
11614;SDS011;5863;52.832;4.758;2023-04-06T09:26:31;34.80;;;24.35;;
11614;SDS011;5863;52.832;4.758;2023-04-06T09:28:59;33.90;;;22.33;;
11614;SDS011;5863;52.832;4.758;2023-04-06T09:31:28;31.67;;;22.23;;
11614;SDS011;5863;52.832;4.758;2023-04-06T09:33:57;33.63;;;23.40;;
11614;SDS011;5863;52.832;4.758;2023-04-06T09:36:31;36.20;;;23.55;;
11614;SDS011;5863;52.832;4.758;2023-04-06T09:38:58;35.38;;;23.85;;
11614;SDS011;5863;52.832;4.758;2023-04-06T09:41:27;34.03;;;23.80;;
11614;SDS011;5863;52.832;4.758;2023-04-06T09:44:01;34.22;;;23.38;;
11614;SDS011;5863;52.832;4.758;2023-04-06T09:46:32;33.97;;;23.40;;
11614;SDS011;5863;52.832;4.758;2023-04-06T09:49:01;34.22;;;22.95;;
11614;SDS011;5863;52.832;4.758;2023-04-06T09:51:29;33.78;;;22.98;;
11614;SDS011;5863;52.832;4.758;2023-04-06T09:53:57;31.60;;;21.92;;
11614;SDS011;5863;52.832;4.758;2023-04-06T09:56:27;30.52;;;20.88;;
11614;SDS011;5863;52.832;4.758;2023-04-06T09:59:00;30.92;;;21.73;;
11614;SDS011;5863;52.832;4.758;2023-04-06T10:01:32;31.52;;;21.48;;
11614;SDS011;5863;52.832;4.758;2023-04-06T10:04:02;31.45;;;22.13;;
11614;SDS011;5863;52.832;4.758;2023-04-06T10:06:37;29.33;;;21.17;;
11614;SDS011;5863;52.832;4.758;2023-04-06T10:09:04;23.42;;;16.77;;
11614;SDS011;5863;52.832;4.758;2023-04-06T10:11:42;20.63;;;16.38;;
11614;SDS011;5863;52.832;4.758;2023-04-06T10:14:10;22.13;;;15.57;;
11614;SDS011;5863;52.832;4.758;2023-04-06T10:16:37;23.15;;;16.00;;
11614;SDS011;5863;52.832;4.758;2023-04-06T10:19:06;19.27;;;14.43;;
11614;SDS011;5863;52.832;4.758;2023-04-06T10:21:39;20.25;;;14.38;;
11614;SDS011;5863;52.832;4.758;2023-04-06T10:24:09;22.58;;;15.38;;
11614;SDS011;5863;52.832;4.758;2023-04-06T10:26:38;21.38;;;15.90;;
11614;SDS011;5863;52.832;4.758;2023-04-06T10:29:06;22.95;;;15.93;;
11614;SDS011;5863;52.832;4.758;2023-04-06T10:31:32;19.00;;;13.77;;
11614;SDS011;5863;52.832;4.758;2023-04-06T10:34:05;18.40;;;14.10;;
11614;SDS011;5863;52.832;4.758;2023-04-06T10:36:32;19.83;;;14.05;;
11614;SDS011;5863;52.832;4.758;2023-04-06T10:39:00;19.40;;;14.07;;
11614;SDS011;5863;52.832;4.758;2023-04-06T10:41:32;21.55;;;14.15;;
11614;SDS011;5863;52.832;4.758;2023-04-06T10:43:59;22.30;;;15.32;;
11614;SDS011;5863;52.832;4.758;2023-04-06T10:46:28;20.70;;;15.35;;
11614;SDS011;5863;52.832;4.758;2023-04-06T10:48:56;18.98;;;14.48;;
11614;SDS011;5863;52.832;4.758;2023-04-06T10:51:25;21.08;;;15.40;;
11614;SDS011;5863;52.832;4.758;2023-04-06T10:53:53;20.33;;;14.32;;
11614;SDS011;5863;52.832;4.758;2023-04-06T10:56:21;19.80;;;15.43;;
11614;SDS011;5863;52.832;4.758;2023-04-06T10:58:51;20.35;;;14.05;;
11614;SDS011;5863;52.832;4.758;2023-04-06T11:01:21;20.67;;;15.13;;
11614;SDS011;5863;52.832;4.758;2023-04-06T11:03:50;18.30;;;12.90;;
11614;SDS011;5863;52.832;4.758;2023-04-06T11:06:19;20.08;;;14.43;;
11614;SDS011;5863;52.832;4.758;2023-04-06T11:08:46;17.60;;;13.70;;
11614;SDS011;5863;52.832;4.758;2023-04-06T11:11:14;19.33;;;14.30;;
11614;SDS011;5863;52.832;4.758;2023-04-06T11:13:44;20.48;;;15.57;;
11614;SDS011;5863;52.832;4.758;2023-04-06T11:16:12;20.02;;;14.32;;
11614;SDS011;5863;52.832;4.758;2023-04-06T11:18:47;21.95;;;15.07;;
11614;SDS011;5863;52.832;4.758;2023-04-06T11:21:16;20.27;;;14.50;;
11614;SDS011;5863;52.832;4.758;2023-04-06T11:23:43;19.45;;;14.65;;
11614;SDS011;5863;52.832;4.758;2023-04-06T11:26:10;20.85;;;14.32;;
11614;SDS011;5863;52.832;4.758;2023-04-06T11:28:37;20.55;;;15.13;;
11614;SDS011;5863;52.832;4.758;2023-04-06T11:31:05;20.23;;;14.70;;
11614;SDS011;5863;52.832;4.758;2023-04-06T11:33:35;21.08;;;15.25;;
11614;SDS011;5863;52.832;4.758;2023-04-06T11:36:03;22.00;;;15.73;;
11614;SDS011;5863;52.832;4.758;2023-04-06T11:38:31;23.48;;;15.77;;
11614;SDS011;5863;52.832;4.758;2023-04-06T11:41:00;23.27;;;16.67;;
11614;SDS011;5863;52.832;4.758;2023-04-06T11:43:27;20.17;;;16.23;;
11614;SDS011;5863;52.832;4.758;2023-04-06T11:45:59;24.45;;;16.77;;
11614;SDS011;5863;52.832;4.758;2023-04-06T11:48:27;23.77;;;16.30;;
11614;SDS011;5863;52.832;4.758;2023-04-06T11:50:57;24.33;;;16.63;;
11614;SDS011;5863;52.832;4.758;2023-04-06T11:53:27;25.75;;;17.55;;
11614;SDS011;5863;52.832;4.758;2023-04-06T11:55:54;25.25;;;16.52;;
11614;SDS011;5863;52.832;4.758;2023-04-06T11:58:21;24.48;;;16.15;;
11614;SDS011;5863;52.832;4.758;2023-04-06T12:00:48;22.00;;;15.55;;
11614;SDS011;5863;52.832;4.758;2023-04-06T12:03:15;20.88;;;15.05;;
11614;SDS011;5863;52.832;4.758;2023-04-06T12:05:43;22.75;;;15.38;;
11614;SDS011;5863;52.832;4.758;2023-04-06T12:08:10;19.27;;;14.98;;
11614;SDS011;5863;52.832;4.758;2023-04-06T12:10:38;19.77;;;14.52;;
11614;SDS011;5863;52.832;4.758;2023-04-06T12:13:05;19.23;;;13.57;;
11614;SDS011;5863;52.832;4.758;2023-04-06T12:15:32;21.90;;;13.90;;
11614;SDS011;5863;52.832;4.758;2023-04-06T12:17:58;20.38;;;13.93;;
11614;SDS011;5863;52.832;4.758;2023-04-06T12:20:25;16.92;;;13.23;;
11614;SDS011;5863;52.832;4.758;2023-04-06T12:22:52;19.75;;;13.38;;
11614;SDS011;5863;52.832;4.758;2023-04-06T12:25:19;16.75;;;11.57;;
11614;SDS011;5863;52.832;4.758;2023-04-06T12:27:47;17.30;;;12.98;;
11614;SDS011;5863;52.832;4.758;2023-04-06T12:30:14;16.05;;;12.40;;
11614;SDS011;5863;52.832;4.758;2023-04-06T12:32:48;17.65;;;12.77;;
11614;SDS011;5863;52.832;4.758;2023-04-06T12:35:16;20.08;;;12.63;;
11614;SDS011;5863;52.832;4.758;2023-04-06T12:37:43;16.85;;;11.32;;
11614;SDS011;5863;52.832;4.758;2023-04-06T12:40:10;16.75;;;11.68;;
11614;SDS011;5863;52.832;4.758;2023-04-06T12:42:38;14.18;;;11.48;;
11614;SDS011;5863;52.832;4.758;2023-04-06T12:45:07;17.52;;;12.38;;
11614;SDS011;5863;52.832;4.758;2023-04-06T12:47:35;13.95;;;10.13;;
11614;SDS011;5863;52.832;4.758;2023-04-06T12:50:05;13.45;;;9.80;;
11614;SDS011;5863;52.832;4.758;2023-04-06T12:52:32;12.40;;;9.70;;
11614;SDS011;5863;52.832;4.758;2023-04-06T12:55:01;10.95;;;9.18;;
11614;SDS011;5863;52.832;4.758;2023-04-06T12:57:28;12.88;;;9.68;;
11614;SDS011;5863;52.832;4.758;2023-04-06T12:59:56;10.43;;;8.65;;
11614;SDS011;5863;52.832;4.758;2023-04-06T13:02:24;9.55;;;8.10;;
11614;SDS011;5863;52.832;4.758;2023-04-06T13:04:52;8.32;;;7.40;;
11614;SDS011;5863;52.832;4.758;2023-04-06T13:07:18;10.10;;;8.23;;
11614;SDS011;5863;52.832;4.758;2023-04-06T13:09:45;9.02;;;7.95;;
11614;SDS011;5863;52.832;4.758;2023-04-06T13:12:14;9.20;;;8.20;;
11614;SDS011;5863;52.832;4.758;2023-04-06T13:14:41;8.97;;;7.90;;
11614;SDS011;5863;52.832;4.758;2023-04-06T13:17:08;10.90;;;7.43;;
11614;SDS011;5863;52.832;4.758;2023-04-06T13:19:36;8.55;;;7.30;;
11614;SDS011;5863;52.832;4.758;2023-04-06T13:22:02;8.82;;;6.97;;
11614;SDS011;5863;52.832;4.758;2023-04-06T13:24:29;9.10;;;7.78;;
11614;SDS011;5863;52.832;4.758;2023-04-06T13:26:56;8.93;;;6.88;;
11614;SDS011;5863;52.832;4.758;2023-04-06T13:29:23;8.97;;;6.87;;
11614;SDS011;5863;52.832;4.758;2023-04-06T13:31:50;8.00;;;7.10;;
11614;SDS011;5863;52.832;4.758;2023-04-06T13:34:17;8.35;;;7.20;;
11614;SDS011;5863;52.832;4.758;2023-04-06T13:36:45;8.60;;;7.33;;
11614;SDS011;5863;52.832;4.758;2023-04-06T13:39:11;8.57;;;7.32;;
11614;SDS011;5863;52.832;4.758;2023-04-06T13:41:38;8.83;;;7.37;;
11614;SDS011;5863;52.832;4.758;2023-04-06T13:44:05;10.17;;;7.73;;
11614;SDS011;5863;52.832;4.758;2023-04-06T13:46:32;9.82;;;7.43;;
11614;SDS011;5863;52.832;4.758;2023-04-06T13:48:59;9.17;;;8.10;;
11614;SDS011;5863;52.832;4.758;2023-04-06T13:51:26;8.68;;;7.78;;
11614;SDS011;5863;52.832;4.758;2023-04-06T13:53:54;9.93;;;7.67;;
11614;SDS011;5863;52.832;4.758;2023-04-06T13:56:20;10.18;;;7.90;;
11614;SDS011;5863;52.832;4.758;2023-04-06T13:58:47;9.88;;;7.95;;
11614;SDS011;5863;52.832;4.758;2023-04-06T14:01:14;9.30;;;7.40;;
11614;SDS011;5863;52.832;4.758;2023-04-06T14:03:40;9.23;;;7.60;;
11614;SDS011;5863;52.832;4.758;2023-04-06T14:06:10;8.60;;;7.70;;
11614;SDS011;5863;52.832;4.758;2023-04-06T14:08:37;9.73;;;7.63;;
11614;SDS011;5863;52.832;4.758;2023-04-06T14:11:05;11.50;;;8.40;;
11614;SDS011;5863;52.832;4.758;2023-04-06T14:13:33;11.43;;;8.40;;
11614;SDS011;5863;52.832;4.758;2023-04-06T14:16:00;9.37;;;7.80;;
11614;SDS011;5863;52.832;4.758;2023-04-06T14:18:27;9.15;;;8.15;;
11614;SDS011;5863;52.832;4.758;2023-04-06T14:20:56;10.10;;;7.97;;
11614;SDS011;5863;52.832;4.758;2023-04-06T14:23:23;10.75;;;8.57;;
11614;SDS011;5863;52.832;4.758;2023-04-06T14:25:51;8.97;;;7.73;;
11614;SDS011;5863;52.832;4.758;2023-04-06T14:28:20;9.87;;;8.10;;
11614;SDS011;5863;52.832;4.758;2023-04-06T14:30:47;9.73;;;8.43;;
11614;SDS011;5863;52.832;4.758;2023-04-06T14:33:14;10.50;;;8.37;;
11614;SDS011;5863;52.832;4.758;2023-04-06T14:35:41;9.60;;;8.30;;
11614;SDS011;5863;52.832;4.758;2023-04-06T14:38:08;10.57;;;8.00;;
11614;SDS011;5863;52.832;4.758;2023-04-06T14:40:35;10.33;;;8.53;;
11614;SDS011;5863;52.832;4.758;2023-04-06T14:43:02;13.43;;;9.33;;
11614;SDS011;5863;52.832;4.758;2023-04-06T14:45:32;10.53;;;8.90;;
11614;SDS011;5863;52.832;4.758;2023-04-06T14:47:59;10.10;;;8.87;;
11614;SDS011;5863;52.832;4.758;2023-04-06T14:50:26;10.47;;;9.20;;
11614;SDS011;5863;52.832;4.758;2023-04-06T14:52:53;10.43;;;8.77;;